Du Quoin, Illinois
Current Conditions -  °F | °C
As of 5:52 PM on Wednesday 22 Oct 2014 (Local Time) from KMDH Reporting Station
Clear Clear  
Wind Chill: 59°   Ceiling: Unl
Heat Index: 59°   Visibility: 10mi
Dew Point: 40°   Wind: 5mph
Humidity: 49%   Direction: 70°ENE
Pressure: 30.22"   Gusts: NA
Location:  38.01°N, 89.24°W
Report Text: KMDH 222252Z 07004KT 10SM CLR 15/04 A3022 RMK AO2 SLP236 T01500044
Loading
Personal Weather Stations






























Interactive Weather Map
Tropical Storm Tracking
New forecast layout! Learn more

10-Day Weather Forecast

Advertisements
Track Severe Weather on mobile